sensor_id;sensor_type;location;lat;lon;timestamp;P1;durP1;ratioP1;P2;durP2;ratioP2
13435;SDS011;6790;49.520;8.504;2022-12-07T00:01:38;10.73;;;6.27;;
13435;SDS011;6790;49.520;8.504;2022-12-07T00:04:06;9.40;;;5.27;;
13435;SDS011;6790;49.520;8.504;2022-12-07T00:06:40;12.77;;;5.93;;
13435;SDS011;6790;49.520;8.504;2022-12-07T00:09:13;13.10;;;7.23;;
13435;SDS011;6790;49.520;8.504;2022-12-07T00:11:40;11.90;;;5.43;;
13435;SDS011;6790;49.520;8.504;2022-12-07T00:14:07;10.70;;;5.50;;
13435;SDS011;6790;49.520;8.504;2022-12-07T00:16:37;8.17;;;5.27;;
13435;SDS011;6790;49.520;8.504;2022-12-07T00:19:03;8.13;;;4.87;;
13435;SDS011;6790;49.520;8.504;2022-12-07T00:21:31;10.07;;;5.07;;
13435;SDS011;6790;49.520;8.504;2022-12-07T00:23:59;9.17;;;5.23;;
13435;SDS011;6790;49.520;8.504;2022-12-07T00:26:27;8.97;;;5.27;;
13435;SDS011;6790;49.520;8.504;2022-12-07T00:28:56;8.30;;;5.07;;
13435;SDS011;6790;49.520;8.504;2022-12-07T00:31:28;8.17;;;5.20;;
13435;SDS011;6790;49.520;8.504;2022-12-07T00:33:58;13.10;;;5.40;;
13435;SDS011;6790;49.520;8.504;2022-12-07T00:36:24;8.03;;;5.10;;
13435;SDS011;6790;49.520;8.504;2022-12-07T00:38:50;8.10;;;5.33;;
13435;SDS011;6790;49.520;8.504;2022-12-07T00:41:17;10.27;;;6.03;;
13435;SDS011;6790;49.520;8.504;2022-12-07T00:43:46;9.17;;;5.03;;
13435;SDS011;6790;49.520;8.504;2022-12-07T00:46:14;13.23;;;6.07;;
13435;SDS011;6790;49.520;8.504;2022-12-07T00:48:40;10.87;;;4.80;;
13435;SDS011;6790;49.520;8.504;2022-12-07T00:51:07;8.27;;;5.07;;
13435;SDS011;6790;49.520;8.504;2022-12-07T00:53:35;9.93;;;5.83;;
13435;SDS011;6790;49.520;8.504;2022-12-07T00:56:05;9.87;;;4.93;;
13435;SDS011;6790;49.520;8.504;2022-12-07T00:58:32;10.00;;;5.73;;
13435;SDS011;6790;49.520;8.504;2022-12-07T01:00:59;8.77;;;5.20;;
13435;SDS011;6790;49.520;8.504;2022-12-07T01:03:27;10.27;;;5.97;;
13435;SDS011;6790;49.520;8.504;2022-12-07T01:05:53;14.57;;;6.43;;
13435;SDS011;6790;49.520;8.504;2022-12-07T01:08:21;8.60;;;5.20;;
13435;SDS011;6790;49.520;8.504;2022-12-07T01:10:48;8.63;;;5.27;;
13435;SDS011;6790;49.520;8.504;2022-12-07T01:13:15;9.27;;;5.37;;
13435;SDS011;6790;49.520;8.504;2022-12-07T01:15:41;10.20;;;5.23;;
13435;SDS011;6790;49.520;8.504;2022-12-07T01:18:08;10.33;;;6.10;;
13435;SDS011;6790;49.520;8.504;2022-12-07T01:20:35;12.13;;;5.60;;
13435;SDS011;6790;49.520;8.504;2022-12-07T01:23:01;8.07;;;5.27;;
13435;SDS011;6790;49.520;8.504;2022-12-07T01:25:27;8.47;;;5.53;;
13435;SDS011;6790;49.520;8.504;2022-12-07T01:27:53;18.20;;;5.73;;
13435;SDS011;6790;49.520;8.504;2022-12-07T01:30:19;11.67;;;5.90;;
13435;SDS011;6790;49.520;8.504;2022-12-07T01:32:45;12.70;;;6.07;;
13435;SDS011;6790;49.520;8.504;2022-12-07T01:35:10;8.53;;;5.20;;
13435;SDS011;6790;49.520;8.504;2022-12-07T01:37:36;10.13;;;6.30;;
13435;SDS011;6790;49.520;8.504;2022-12-07T01:40:04;7.83;;;5.13;;
13435;SDS011;6790;49.520;8.504;2022-12-07T01:42:32;10.07;;;5.10;;
13435;SDS011;6790;49.520;8.504;2022-12-07T01:47:43;13.67;;;5.57;;
13435;SDS011;6790;49.520;8.504;2022-12-07T01:50:16;12.07;;;6.70;;
13435;SDS011;6790;49.520;8.504;2022-12-07T01:52:42;11.97;;;5.50;;
13435;SDS011;6790;49.520;8.504;2022-12-07T01:55:11;10.43;;;6.20;;
13435;SDS011;6790;49.520;8.504;2022-12-07T01:57:41;8.13;;;4.87;;
13435;SDS011;6790;49.520;8.504;2022-12-07T02:00:13;7.30;;;4.40;;
13435;SDS011;6790;49.520;8.504;2022-12-07T02:02:51;12.10;;;5.40;;
13435;SDS011;6790;49.520;8.504;2022-12-07T02:05:25;9.67;;;5.47;;
13435;SDS011;6790;49.520;8.504;2022-12-07T02:07:52;7.77;;;4.80;;
13435;SDS011;6790;49.520;8.504;2022-12-07T02:12:56;8.43;;;5.20;;
13435;SDS011;6790;49.520;8.504;2022-12-07T02:22:20;9.97;;;4.57;;
13435;SDS011;6790;49.520;8.504;2022-12-07T02:28:37;9.47;;;5.00;;
13435;SDS011;6790;49.520;8.504;2022-12-07T02:31:44;7.57;;;4.20;;
13435;SDS011;6790;49.520;8.504;2022-12-07T02:34:34;9.53;;;4.77;;
13435;SDS011;6790;49.520;8.504;2022-12-07T02:37:19;10.40;;;5.47;;
13435;SDS011;6790;49.520;8.504;2022-12-07T02:40:07;11.17;;;5.83;;
13435;SDS011;6790;49.520;8.504;2022-12-07T02:43:09;8.33;;;4.67;;
13435;SDS011;6790;49.520;8.504;2022-12-07T02:46:20;9.97;;;5.83;;
13435;SDS011;6790;49.520;8.504;2022-12-07T02:48:54;10.97;;;5.57;;
13435;SDS011;6790;49.520;8.504;2022-12-07T02:51:21;6.83;;;4.77;;
13435;SDS011;6790;49.520;8.504;2022-12-07T02:53:47;9.73;;;5.37;;
13435;SDS011;6790;49.520;8.504;2022-12-07T02:56:16;9.00;;;5.47;;
13435;SDS011;6790;49.520;8.504;2022-12-07T03:05:09;6.70;;;4.37;;
13435;SDS011;6790;49.520;8.504;2022-12-07T03:07:59;10.83;;;5.10;;
13435;SDS011;6790;49.520;8.504;2022-12-07T03:16:14;10.60;;;5.47;;
13435;SDS011;6790;49.520;8.504;2022-12-07T03:18:52;9.73;;;4.37;;
13435;SDS011;6790;49.520;8.504;2022-12-07T03:21:26;13.37;;;4.73;;
13435;SDS011;6790;49.520;8.504;2022-12-07T03:23:59;9.23;;;5.40;;
13435;SDS011;6790;49.520;8.504;2022-12-07T03:26:36;16.53;;;5.53;;
13435;SDS011;6790;49.520;8.504;2022-12-07T03:29:08;10.30;;;4.93;;
13435;SDS011;6790;49.520;8.504;2022-12-07T03:32:29;6.87;;;4.17;;
13435;SDS011;6790;49.520;8.504;2022-12-07T03:35:03;9.00;;;5.20;;
13435;SDS011;6790;49.520;8.504;2022-12-07T03:40:50;6.03;;;4.30;;
13435;SDS011;6790;49.520;8.504;2022-12-07T03:43:31;8.87;;;5.00;;
13435;SDS011;6790;49.520;8.504;2022-12-07T03:48:42;6.87;;;4.63;;
13435;SDS011;6790;49.520;8.504;2022-12-07T03:51:25;8.87;;;5.60;;
13435;SDS011;6790;49.520;8.504;2022-12-07T03:56:44;8.77;;;4.83;;
13435;SDS011;6790;49.520;8.504;2022-12-07T03:59:12;10.57;;;5.00;;
13435;SDS011;6790;49.520;8.504;2022-12-07T04:01:43;12.47;;;5.70;;
13435;SDS011;6790;49.520;8.504;2022-12-07T04:04:12;8.43;;;5.33;;
13435;SDS011;6790;49.520;8.504;2022-12-07T04:06:38;11.67;;;5.60;;
13435;SDS011;6790;49.520;8.504;2022-12-07T04:09:03;8.93;;;5.07;;
13435;SDS011;6790;49.520;8.504;2022-12-07T04:11:29;8.97;;;4.90;;
13435;SDS011;6790;49.520;8.504;2022-12-07T04:13:55;9.30;;;4.43;;
13435;SDS011;6790;49.520;8.504;2022-12-07T04:16:39;6.23;;;4.03;;
13435;SDS011;6790;49.520;8.504;2022-12-07T04:19:04;10.67;;;5.23;;
13435;SDS011;6790;49.520;8.504;2022-12-07T04:21:30;9.80;;;4.77;;
13435;SDS011;6790;49.520;8.504;2022-12-07T04:23:56;10.20;;;5.10;;
13435;SDS011;6790;49.520;8.504;2022-12-07T04:26:21;8.30;;;5.00;;
13435;SDS011;6790;49.520;8.504;2022-12-07T04:28:47;10.43;;;5.40;;
13435;SDS011;6790;49.520;8.504;2022-12-07T04:31:13;7.27;;;4.63;;
13435;SDS011;6790;49.520;8.504;2022-12-07T04:33:38;8.10;;;5.47;;
13435;SDS011;6790;49.520;8.504;2022-12-07T04:36:04;7.83;;;4.53;;
13435;SDS011;6790;49.520;8.504;2022-12-07T04:38:30;9.83;;;4.57;;
13435;SDS011;6790;49.520;8.504;2022-12-07T04:40:56;9.27;;;4.40;;
13435;SDS011;6790;49.520;8.504;2022-12-07T04:43:22;5.13;;;3.67;;
13435;SDS011;6790;49.520;8.504;2022-12-07T04:45:47;7.03;;;4.87;;
13435;SDS011;6790;49.520;8.504;2022-12-07T04:48:13;9.40;;;4.33;;
13435;SDS011;6790;49.520;8.504;2022-12-07T04:50:39;8.60;;;3.80;;
13435;SDS011;6790;49.520;8.504;2022-12-07T04:53:05;10.43;;;4.03;;
13435;SDS011;6790;49.520;8.504;2022-12-07T04:55:31;8.33;;;4.77;;
13435;SDS011;6790;49.520;8.504;2022-12-07T04:57:56;6.50;;;4.47;;
13435;SDS011;6790;49.520;8.504;2022-12-07T05:00:22;6.60;;;4.20;;
13435;SDS011;6790;49.520;8.504;2022-12-07T05:02:48;6.27;;;3.97;;
13435;SDS011;6790;49.520;8.504;2022-12-07T05:05:13;8.73;;;4.40;;
13435;SDS011;6790;49.520;8.504;2022-12-07T05:07:39;6.77;;;3.97;;
13435;SDS011;6790;49.520;8.504;2022-12-07T05:10:05;7.10;;;4.37;;
13435;SDS011;6790;49.520;8.504;2022-12-07T05:12:31;7.27;;;4.00;;
13435;SDS011;6790;49.520;8.504;2022-12-07T05:14:57;6.43;;;4.40;;
13435;SDS011;6790;49.520;8.504;2022-12-07T05:17:23;7.60;;;4.50;;
13435;SDS011;6790;49.520;8.504;2022-12-07T05:19:49;9.93;;;4.60;;
13435;SDS011;6790;49.520;8.504;2022-12-07T05:22:14;6.40;;;3.80;;
13435;SDS011;6790;49.520;8.504;2022-12-07T05:24:40;10.30;;;5.27;;
13435;SDS011;6790;49.520;8.504;2022-12-07T05:27:06;10.67;;;4.40;;
13435;SDS011;6790;49.520;8.504;2022-12-07T05:29:33;6.97;;;5.07;;
13435;SDS011;6790;49.520;8.504;2022-12-07T05:31:58;9.27;;;4.97;;
13435;SDS011;6790;49.520;8.504;2022-12-07T05:34:24;11.47;;;5.20;;
13435;SDS011;6790;49.520;8.504;2022-12-07T05:36:50;8.47;;;4.57;;
13435;SDS011;6790;49.520;8.504;2022-12-07T05:39:16;7.40;;;4.30;;
13435;SDS011;6790;49.520;8.504;2022-12-07T05:41:41;8.67;;;4.77;;
13435;SDS011;6790;49.520;8.504;2022-12-07T05:44:25;7.80;;;4.53;;
13435;SDS011;6790;49.520;8.504;2022-12-07T05:46:51;9.50;;;5.60;;
13435;SDS011;6790;49.520;8.504;2022-12-07T05:49:17;8.43;;;4.30;;
13435;SDS011;6790;49.520;8.504;2022-12-07T05:51:42;5.33;;;3.60;;
13435;SDS011;6790;49.520;8.504;2022-12-07T05:54:08;9.37;;;5.43;;
13435;SDS011;6790;49.520;8.504;2022-12-07T05:56:34;12.03;;;5.50;;
13435;SDS011;6790;49.520;8.504;2022-12-07T05:58:59;8.67;;;5.17;;
13435;SDS011;6790;49.520;8.504;2022-12-07T06:01:44;7.83;;;4.23;;
13435;SDS011;6790;49.520;8.504;2022-12-07T06:04:09;8.37;;;4.73;;
13435;SDS011;6790;49.520;8.504;2022-12-07T06:06:35;6.67;;;4.97;;
13435;SDS011;6790;49.520;8.504;2022-12-07T06:09:01;7.33;;;4.73;;
13435;SDS011;6790;49.520;8.504;2022-12-07T06:11:27;6.13;;;3.87;;
13435;SDS011;6790;49.520;8.504;2022-12-07T06:14:11;6.50;;;4.40;;
13435;SDS011;6790;49.520;8.504;2022-12-07T06:16:37;11.23;;;4.67;;
13435;SDS011;6790;49.520;8.504;2022-12-07T06:19:03;7.77;;;4.60;;
13435;SDS011;6790;49.520;8.504;2022-12-07T06:21:29;8.83;;;4.90;;
13435;SDS011;6790;49.520;8.504;2022-12-07T06:23:54;6.37;;;4.50;;
13435;SDS011;6790;49.520;8.504;2022-12-07T06:26:20;8.37;;;5.07;;
13435;SDS011;6790;49.520;8.504;2022-12-07T06:28:46;7.93;;;5.20;;
13435;SDS011;6790;49.520;8.504;2022-12-07T06:31:12;8.30;;;5.23;;
13435;SDS011;6790;49.520;8.504;2022-12-07T06:33:37;9.57;;;4.83;;
13435;SDS011;6790;49.520;8.504;2022-12-07T06:36:03;6.73;;;4.67;;
13435;SDS011;6790;49.520;8.504;2022-12-07T06:38:29;7.57;;;4.60;;
13435;SDS011;6790;49.520;8.504;2022-12-07T06:40:55;8.37;;;4.87;;
13435;SDS011;6790;49.520;8.504;2022-12-07T06:43:21;9.47;;;5.20;;
13435;SDS011;6790;49.520;8.504;2022-12-07T06:45:46;7.63;;;4.80;;
13435;SDS011;6790;49.520;8.504;2022-12-07T06:48:12;8.47;;;4.63;;
13435;SDS011;6790;49.520;8.504;2022-12-07T06:50:38;6.40;;;4.30;;
13435;SDS011;6790;49.520;8.504;2022-12-07T06:53:03;11.50;;;4.97;;
13435;SDS011;6790;49.520;8.504;2022-12-07T06:55:29;15.67;;;5.70;;
13435;SDS011;6790;49.520;8.504;2022-12-07T06:57:55;9.70;;;4.70;;
13435;SDS011;6790;49.520;8.504;2022-12-07T07:00:20;14.23;;;7.30;;
13435;SDS011;6790;49.520;8.504;2022-12-07T07:02:46;10.23;;;5.67;;
13435;SDS011;6790;49.520;8.504;2022-12-07T07:05:12;10.10;;;6.20;;
13435;SDS011;6790;49.520;8.504;2022-12-07T07:07:37;10.33;;;5.80;;
13435;SDS011;6790;49.520;8.504;2022-12-07T07:10:03;8.50;;;5.00;;
13435;SDS011;6790;49.520;8.504;2022-12-07T07:12:30;12.50;;;6.97;;
13435;SDS011;6790;49.520;8.504;2022-12-07T07:14:55;10.83;;;5.80;;
13435;SDS011;6790;49.520;8.504;2022-12-07T07:17:21;7.83;;;5.47;;
13435;SDS011;6790;49.520;8.504;2022-12-07T07:19:47;8.60;;;5.10;;
13435;SDS011;6790;49.520;8.504;2022-12-07T07:22:12;9.47;;;5.40;;
13435;SDS011;6790;49.520;8.504;2022-12-07T07:24:38;8.80;;;5.63;;
13435;SDS011;6790;49.520;8.504;2022-12-07T07:27:04;9.47;;;6.07;;
13435;SDS011;6790;49.520;8.504;2022-12-07T07:29:29;10.27;;;6.07;;
13435;SDS011;6790;49.520;8.504;2022-12-07T07:31:55;10.10;;;5.83;;
13435;SDS011;6790;49.520;8.504;2022-12-07T07:34:21;15.33;;;6.50;;
13435;SDS011;6790;49.520;8.504;2022-12-07T07:36:46;11.50;;;6.67;;
13435;SDS011;6790;49.520;8.504;2022-12-07T07:39:12;16.23;;;5.77;;
13435;SDS011;6790;49.520;8.504;2022-12-07T07:41:38;8.70;;;5.33;;
13435;SDS011;6790;49.520;8.504;2022-12-07T07:44:04;10.10;;;6.33;;
13435;SDS011;6790;49.520;8.504;2022-12-07T07:46:29;30.63;;;17.57;;
13435;SDS011;6790;49.520;8.504;2022-12-07T07:48:55;21.83;;;10.47;;
13435;SDS011;6790;49.520;8.504;2022-12-07T07:51:21;18.80;;;11.50;;
13435;SDS011;6790;49.520;8.504;2022-12-07T07:53:46;13.10;;;7.10;;
13435;SDS011;6790;49.520;8.504;2022-12-07T07:56:12;12.23;;;6.67;;
13435;SDS011;6790;49.520;8.504;2022-12-07T07:58:38;9.60;;;5.87;;
13435;SDS011;6790;49.520;8.504;2022-12-07T08:01:04;12.67;;;7.67;;
13435;SDS011;6790;49.520;8.504;2022-12-07T08:03:31;9.43;;;6.27;;
13435;SDS011;6790;49.520;8.504;2022-12-07T08:05:57;14.23;;;6.57;;
13435;SDS011;6790;49.520;8.504;2022-12-07T08:08:23;9.47;;;6.27;;
13435;SDS011;6790;49.520;8.504;2022-12-07T08:10:48;11.63;;;5.53;;
13435;SDS011;6790;49.520;8.504;2022-12-07T08:13:15;11.03;;;6.27;;
13435;SDS011;6790;49.520;8.504;2022-12-07T08:15:45;10.47;;;5.93;;
13435;SDS011;6790;49.520;8.504;2022-12-07T08:18:12;13.37;;;8.37;;
13435;SDS011;6790;49.520;8.504;2022-12-07T08:20:40;16.17;;;8.17;;
13435;SDS011;6790;49.520;8.504;2022-12-07T08:23:06;11.33;;;7.70;;
13435;SDS011;6790;49.520;8.504;2022-12-07T08:25:33;12.10;;;7.60;;
13435;SDS011;6790;49.520;8.504;2022-12-07T08:28:00;11.60;;;6.90;;
13435;SDS011;6790;49.520;8.504;2022-12-07T08:30:26;11.10;;;6.90;;
13435;SDS011;6790;49.520;8.504;2022-12-07T08:32:53;16.07;;;8.17;;
13435;SDS011;6790;49.520;8.504;2022-12-07T08:35:19;11.73;;;7.73;;
13435;SDS011;6790;49.520;8.504;2022-12-07T08:37:45;16.20;;;9.37;;
13435;SDS011;6790;49.520;8.504;2022-12-07T08:40:11;12.67;;;9.37;;
13435;SDS011;6790;49.520;8.504;2022-12-07T08:42:43;18.43;;;12.77;;
13435;SDS011;6790;49.520;8.504;2022-12-07T08:45:13;17.60;;;11.13;;
13435;SDS011;6790;49.520;8.504;2022-12-07T08:47:41;24.27;;;13.43;;
13435;SDS011;6790;49.520;8.504;2022-12-07T08:50:13;14.97;;;7.90;;
13435;SDS011;6790;49.520;8.504;2022-12-07T08:52:39;29.30;;;18.63;;
13435;SDS011;6790;49.520;8.504;2022-12-07T08:55:06;86.33;;;44.43;;
13435;SDS011;6790;49.520;8.504;2022-12-07T08:57:37;27.70;;;13.10;;
13435;SDS011;6790;49.520;8.504;2022-12-07T09:00:04;19.40;;;11.60;;
13435;SDS011;6790;49.520;8.504;2022-12-07T09:02:32;68.57;;;29.10;;
13435;SDS011;6790;49.520;8.504;2022-12-07T09:04:58;36.97;;;21.00;;
13435;SDS011;6790;49.520;8.504;2022-12-07T09:07:23;28.07;;;15.50;;
13435;SDS011;6790;49.520;8.504;2022-12-07T09:09:50;20.40;;;11.57;;
13435;SDS011;6790;49.520;8.504;2022-12-07T09:12:16;19.43;;;10.77;;
13435;SDS011;6790;49.520;8.504;2022-12-07T09:14:41;17.07;;;8.30;;
13435;SDS011;6790;49.520;8.504;2022-12-07T09:17:07;11.77;;;7.43;;
13435;SDS011;6790;49.520;8.504;2022-12-07T09:19:36;12.60;;;7.73;;
13435;SDS011;6790;49.520;8.504;2022-12-07T09:22:02;16.10;;;7.80;;
13435;SDS011;6790;49.520;8.504;2022-12-07T09:24:29;14.93;;;7.43;;
13435;SDS011;6790;49.520;8.504;2022-12-07T09:26:56;14.10;;;7.10;;
13435;SDS011;6790;49.520;8.504;2022-12-07T09:29:22;12.23;;;7.93;;
13435;SDS011;6790;49.520;8.504;2022-12-07T09:31:48;13.03;;;8.23;;
13435;SDS011;6790;49.520;8.504;2022-12-07T09:34:14;16.47;;;7.37;;
13435;SDS011;6790;49.520;8.504;2022-12-07T09:36:40;13.00;;;7.93;;
13435;SDS011;6790;49.520;8.504;2022-12-07T09:39:07;14.70;;;8.67;;
13435;SDS011;6790;49.520;8.504;2022-12-07T09:41:32;16.03;;;9.30;;
13435;SDS011;6790;49.520;8.504;2022-12-07T09:44:06;27.47;;;12.70;;
13435;SDS011;6790;49.520;8.504;2022-12-07T09:46:40;11.43;;;8.07;;
13435;SDS011;6790;49.520;8.504;2022-12-07T09:49:09;20.57;;;10.63;;
13435;SDS011;6790;49.520;8.504;2022-12-07T09:51:42;13.17;;;8.60;;
13435;SDS011;6790;49.520;8.504;2022-12-07T09:54:08;13.27;;;8.10;;
13435;SDS011;6790;49.520;8.504;2022-12-07T09:56:39;11.30;;;7.47;;
13435;SDS011;6790;49.520;8.504;2022-12-07T09:59:05;14.53;;;7.90;;
13435;SDS011;6790;49.520;8.504;2022-12-07T10:01:37;14.80;;;8.27;;
13435;SDS011;6790;49.520;8.504;2022-12-07T10:04:17;12.70;;;7.67;;
13435;SDS011;6790;49.520;8.504;2022-12-07T10:06:49;15.13;;;9.20;;
13435;SDS011;6790;49.520;8.504;2022-12-07T10:09:16;15.00;;;8.33;;
13435;SDS011;6790;49.520;8.504;2022-12-07T10:14:57;22.90;;;13.47;;
13435;SDS011;6790;49.520;8.504;2022-12-07T10:17:40;15.30;;;8.00;;
13435;SDS011;6790;49.520;8.504;2022-12-07T10:25:29;12.63;;;6.80;;
13435;SDS011;6790;49.520;8.504;2022-12-07T10:30:32;15.93;;;8.50;;
13435;SDS011;6790;49.520;8.504;2022-12-07T10:36:25;15.00;;;8.30;;
13435;SDS011;6790;49.520;8.504;2022-12-07T10:41:55;12.57;;;7.20;;
13435;SDS011;6790;49.520;8.504;2022-12-07T10:44:27;11.60;;;7.13;;
13435;SDS011;6790;49.520;8.504;2022-12-07T10:55:34;10.10;;;5.77;;
13435;SDS011;6790;49.520;8.504;2022-12-07T10:58:31;9.17;;;5.63;;
13435;SDS011;6790;49.520;8.504;2022-12-07T11:04:02;8.43;;;4.97;;
13435;SDS011;6790;49.520;8.504;2022-12-07T11:07:14;10.80;;;6.50;;
13435;SDS011;6790;49.520;8.504;2022-12-07T11:10:13;11.00;;;6.77;;
13435;SDS011;6790;49.520;8.504;2022-12-07T11:12:56;9.80;;;5.23;;
13435;SDS011;6790;49.520;8.504;2022-12-07T11:15:51;8.00;;;4.50;;
13435;SDS011;6790;49.520;8.504;2022-12-07T11:21:19;8.90;;;5.27;;
13435;SDS011;6790;49.520;8.504;2022-12-07T11:24:19;7.23;;;5.37;;
13435;SDS011;6790;49.520;8.504;2022-12-07T11:27:07;9.33;;;5.07;;
13435;SDS011;6790;49.520;8.504;2022-12-07T11:32:49;8.07;;;4.57;;
13435;SDS011;6790;49.520;8.504;2022-12-07T11:38:43;12.13;;;6.43;;
13435;SDS011;6790;49.520;8.504;2022-12-07T11:41:22;11.10;;;5.13;;
13435;SDS011;6790;49.520;8.504;2022-12-07T11:46:29;10.00;;;5.13;;
13435;SDS011;6790;49.520;8.504;2022-12-07T11:51:55;9.57;;;3.70;;
13435;SDS011;6790;49.520;8.504;2022-12-07T11:54:29;5.37;;;3.77;;
13435;SDS011;6790;49.520;8.504;2022-12-07T11:57:05;8.50;;;5.00;;
13435;SDS011;6790;49.520;8.504;2022-12-07T11:59:40;6.07;;;4.53;;
13435;SDS011;6790;49.520;8.504;2022-12-07T12:02:23;8.50;;;4.33;;
13435;SDS011;6790;49.520;8.504;2022-12-07T12:07:38;8.23;;;4.73;;
13435;SDS011;6790;49.520;8.504;2022-12-07T12:10:06;5.90;;;4.50;;
13435;SDS011;6790;49.520;8.504;2022-12-07T12:18:51;12.00;;;6.53;;
13435;SDS011;6790;49.520;8.504;2022-12-07T12:21:30;7.87;;;4.07;;
13435;SDS011;6790;49.520;8.504;2022-12-07T12:24:39;10.63;;;5.93;;
13435;SDS011;6790;49.520;8.504;2022-12-07T12:26:52;10.27;;;3.93;;
13435;SDS011;6790;49.520;8.504;2022-12-07T12:29:34;5.17;;;3.67;;
13435;SDS011;6790;49.520;8.504;2022-12-07T12:32:05;5.53;;;3.57;;
13435;SDS011;6790;49.520;8.504;2022-12-07T12:37:48;8.70;;;5.20;;
13435;SDS011;6790;49.520;8.504;2022-12-07T12:42:46;6.13;;;4.37;;
13435;SDS011;6790;49.520;8.504;2022-12-07T12:45:27;6.63;;;4.47;;
13435;SDS011;6790;49.520;8.504;2022-12-07T12:48:02;8.97;;;4.83;;
13435;SDS011;6790;49.520;8.504;2022-12-07T12:53:03;6.67;;;4.43;;
13435;SDS011;6790;49.520;8.504;2022-12-07T13:00:47;2.93;;;2.63;;
13435;SDS011;6790;49.520;8.504;2022-12-07T13:03:53;7.17;;;3.73;;
13435;SDS011;6790;49.520;8.504;2022-12-07T13:08:49;8.63;;;4.23;;
13435;SDS011;6790;49.520;8.504;2022-12-07T13:11:33;11.90;;;6.27;;
13435;SDS011;6790;49.520;8.504;2022-12-07T13:19:55;5.53;;;3.63;;
13435;SDS011;6790;49.520;8.504;2022-12-07T13:25:18;5.17;;;3.73;;
13435;SDS011;6790;49.520;8.504;2022-12-07T13:28:19;6.77;;;3.20;;
13435;SDS011;6790;49.520;8.504;2022-12-07T13:30:56;5.63;;;3.33;;
13435;SDS011;6790;49.520;8.504;2022-12-07T13:33:55;5.93;;;3.40;;
13435;SDS011;6790;49.520;8.504;2022-12-07T13:36:22;7.23;;;4.53;;
13435;SDS011;6790;49.520;8.504;2022-12-07T13:39:10;6.63;;;3.13;;
13435;SDS011;6790;49.520;8.504;2022-12-07T13:41:52;6.47;;;2.43;;
13435;SDS011;6790;49.520;8.504;2022-12-07T13:44:33;5.33;;;2.90;;
13435;SDS011;6790;49.520;8.504;2022-12-07T13:47:03;4.80;;;3.13;;
13435;SDS011;6790;49.520;8.504;2022-12-07T13:49:55;6.93;;;2.97;;
13435;SDS011;6790;49.520;8.504;2022-12-07T13:54:59;6.80;;;2.90;;
13435;SDS011;6790;49.520;8.504;2022-12-07T13:57:36;6.27;;;2.53;;
13435;SDS011;6790;49.520;8.504;2022-12-07T14:00:03;5.60;;;2.67;;
13435;SDS011;6790;49.520;8.504;2022-12-07T14:02:32;3.70;;;2.50;;
13435;SDS011;6790;49.520;8.504;2022-12-07T14:05:34;4.33;;;2.80;;
13435;SDS011;6790;49.520;8.504;2022-12-07T14:12:55;7.50;;;3.33;;
13435;SDS011;6790;49.520;8.504;2022-12-07T14:15:23;3.87;;;2.63;;
13435;SDS011;6790;49.520;8.504;2022-12-07T14:17:56;4.47;;;2.40;;
13435;SDS011;6790;49.520;8.504;2022-12-07T14:20:36;4.87;;;3.03;;
13435;SDS011;6790;49.520;8.504;2022-12-07T14:23:05;4.60;;;2.70;;
13435;SDS011;6790;49.520;8.504;2022-12-07T14:25:48;4.97;;;2.60;;
13435;SDS011;6790;49.520;8.504;2022-12-07T14:28:33;3.67;;;2.60;;
13435;SDS011;6790;49.520;8.504;2022-12-07T14:31:01;6.47;;;2.97;;
13435;SDS011;6790;49.520;8.504;2022-12-07T14:33:27;10.33;;;5.83;;
13435;SDS011;6790;49.520;8.504;2022-12-07T14:35:54;4.33;;;3.50;;
13435;SDS011;6790;49.520;8.504;2022-12-07T14:38:24;5.40;;;3.10;;
13435;SDS011;6790;49.520;8.504;2022-12-07T14:40:51;5.43;;;3.30;;
13435;SDS011;6790;49.520;8.504;2022-12-07T14:43:19;6.77;;;2.80;;
13435;SDS011;6790;49.520;8.504;2022-12-07T14:45:45;4.40;;;2.93;;
13435;SDS011;6790;49.520;8.504;2022-12-07T14:48:12;8.60;;;3.30;;
13435;SDS011;6790;49.520;8.504;2022-12-07T14:50:49;5.30;;;3.40;;
13435;SDS011;6790;49.520;8.504;2022-12-07T14:53:18;17.20;;;9.07;;
13435;SDS011;6790;49.520;8.504;2022-12-07T14:55:52;9.87;;;6.07;;
13435;SDS011;6790;49.520;8.504;2022-12-07T14:58:18;6.67;;;3.43;;
13435;SDS011;6790;49.520;8.504;2022-12-07T15:00:43;5.70;;;2.63;;
13435;SDS011;6790;49.520;8.504;2022-12-07T15:03:10;7.13;;;2.67;;
13435;SDS011;6790;49.520;8.504;2022-12-07T15:05:37;3.27;;;2.70;;
13435;SDS011;6790;49.520;8.504;2022-12-07T15:08:03;4.93;;;2.93;;
13435;SDS011;6790;49.520;8.504;2022-12-07T15:10:31;8.17;;;3.50;;
13435;SDS011;6790;49.520;8.504;2022-12-07T15:12:59;7.37;;;3.00;;
13435;SDS011;6790;49.520;8.504;2022-12-07T15:15:45;5.40;;;3.10;;
13435;SDS011;6790;49.520;8.504;2022-12-07T15:18:12;3.70;;;2.63;;
13435;SDS011;6790;49.520;8.504;2022-12-07T15:20:37;10.30;;;6.03;;
13435;SDS011;6790;49.520;8.504;2022-12-07T15:23:03;8.47;;;4.80;;
13435;SDS011;6790;49.520;8.504;2022-12-07T15:25:29;25.47;;;15.07;;
13435;SDS011;6790;49.520;8.504;2022-12-07T15:27:55;7.27;;;3.93;;
13435;SDS011;6790;49.520;8.504;2022-12-07T15:30:20;5.27;;;3.40;;
13435;SDS011;6790;49.520;8.504;2022-12-07T15:32:49;3.60;;;2.57;;
13435;SDS011;6790;49.520;8.504;2022-12-07T15:35:16;3.27;;;2.53;;
13435;SDS011;6790;49.520;8.504;2022-12-07T15:37:42;5.93;;;2.83;;
13435;SDS011;6790;49.520;8.504;2022-12-07T15:40:07;3.20;;;2.63;;
13435;SDS011;6790;49.520;8.504;2022-12-07T15:42:35;5.97;;;3.30;;
13435;SDS011;6790;49.520;8.504;2022-12-07T15:45:01;4.73;;;2.90;;
13435;SDS011;6790;49.520;8.504;2022-12-07T15:47:30;7.10;;;3.10;;
13435;SDS011;6790;49.520;8.504;2022-12-07T15:49:58;4.60;;;3.00;;
13435;SDS011;6790;49.520;8.504;2022-12-07T15:52:24;6.93;;;3.67;;
13435;SDS011;6790;49.520;8.504;2022-12-07T15:54:50;5.37;;;3.40;;
13435;SDS011;6790;49.520;8.504;2022-12-07T15:57:15;3.60;;;2.90;;
13435;SDS011;6790;49.520;8.504;2022-12-07T15:59:41;4.53;;;3.03;;
13435;SDS011;6790;49.520;8.504;2022-12-07T16:02:08;6.03;;;3.07;;
13435;SDS011;6790;49.520;8.504;2022-12-07T16:04:35;5.40;;;2.93;;
13435;SDS011;6790;49.520;8.504;2022-12-07T16:07:01;4.27;;;3.13;;
13435;SDS011;6790;49.520;8.504;2022-12-07T16:09:27;4.43;;;3.47;;
13435;SDS011;6790;49.520;8.504;2022-12-07T16:11:53;6.20;;;3.63;;
13435;SDS011;6790;49.520;8.504;2022-12-07T16:14:19;6.67;;;3.80;;
13435;SDS011;6790;49.520;8.504;2022-12-07T16:16:46;6.77;;;3.10;;
13435;SDS011;6790;49.520;8.504;2022-12-07T16:19:12;5.70;;;3.13;;
13435;SDS011;6790;49.520;8.504;2022-12-07T16:21:38;8.67;;;4.73;;
13435;SDS011;6790;49.520;8.504;2022-12-07T16:24:04;22.47;;;14.67;;
13435;SDS011;6790;49.520;8.504;2022-12-07T16:26:30;9.60;;;4.77;;
13435;SDS011;6790;49.520;8.504;2022-12-07T16:28:56;7.10;;;4.03;;
13435;SDS011;6790;49.520;8.504;2022-12-07T16:31:24;7.43;;;3.40;;
13435;SDS011;6790;49.520;8.504;2022-12-07T16:33:55;6.37;;;4.00;;
13435;SDS011;6790;49.520;8.504;2022-12-07T16:36:23;6.13;;;3.93;;
13435;SDS011;6790;49.520;8.504;2022-12-07T16:38:50;5.37;;;3.87;;
13435;SDS011;6790;49.520;8.504;2022-12-07T16:41:16;6.30;;;3.47;;
13435;SDS011;6790;49.520;8.504;2022-12-07T16:43:42;4.20;;;3.00;;
13435;SDS011;6790;49.520;8.504;2022-12-07T16:46:08;6.53;;;3.33;;
13435;SDS011;6790;49.520;8.504;2022-12-07T16:48:35;5.63;;;3.33;;
13435;SDS011;6790;49.520;8.504;2022-12-07T16:51:05;5.70;;;3.73;;
13435;SDS011;6790;49.520;8.504;2022-12-07T16:53:34;5.47;;;3.77;;
13435;SDS011;6790;49.520;8.504;2022-12-07T16:56:01;5.97;;;3.87;;
13435;SDS011;6790;49.520;8.504;2022-12-07T16:58:27;4.57;;;3.53;;
13435;SDS011;6790;49.520;8.504;2022-12-07T17:00:53;8.70;;;3.73;;
13435;SDS011;6790;49.520;8.504;2022-12-07T17:03:19;9.87;;;3.47;;
13435;SDS011;6790;49.520;8.504;2022-12-07T17:05:45;8.57;;;3.50;;
13435;SDS011;6790;49.520;8.504;2022-12-07T17:08:12;5.13;;;3.73;;
13435;SDS011;6790;49.520;8.504;2022-12-07T17:10:39;8.57;;;4.00;;
13435;SDS011;6790;49.520;8.504;2022-12-07T17:13:08;7.53;;;4.20;;
13435;SDS011;6790;49.520;8.504;2022-12-07T17:15:57;7.87;;;4.27;;